Other Surface Observations
Issued by NWS Great Falls, MT

Home | Current Version | Previous Version | Text Only | Print | Product List | Glossary On
Versions: 1 2 3 4 5 6 7 8 9 10 11 12 13 14 15 16 17 18 19 20 21 22 23 24 25 26 27 28 29 30 31 32 33 34 35 36 37 38 39 40 41 42 43 44 45 46 47 48 49 50
000
SXUS55 KTFX 281214
OSOTFX
AREA AWOS OBSERVATIONS
NATIONAL WEATHER SERVICE GREAT FALLS MT
0514 AM MST TUE FEB 28 2017

METAR KPWD 281215Z AUTO 11005KT 6SM M13/M14 A2976 RMK PLENTYWOOD
METAR K1S3 281215Z AUTO 11003KT 9SM M08/M08 A2969 RMK FORSYTH
METAR KS71 281215Z AUTO 00000KT 10SM M10/M12 A2967 RMK CHINOOK
METAR K79S 281215Z AUTO 36002KT 10SM M09/M11 A2962 RMK FORT BENTON
METAR K38S 281215Z AUTO 17008KT 10SM M06/M11 A2959 RMK DEER LODGE
METAR K3U3 281215Z AUTO 19009G15KT 10SM M06/M12 A2957 RMK ANACONDA
METAR K6S5 281215Z AUTO 16012G19KT 10SM M04/M07 A2962 RMK HAMILTON
METAR KS59 281215Z AUTO 00000KT 10SM M07/M07 A2956 RMK LIBBY
METAR K88M 281215Z AUTO 00000KT 1/2SM M07/M08 A2960 RMK EUREKA



USA.gov is the U.S. government's official web portal to all federal, state and local government web resources and services.